Terminal Aerodrome Forecast
Issued by NWS Sterling, VA

Current Version | Previous Version | Text Only | Print | Product List | Glossary On
Versions: 1 2 3 4 5 6 7 8 9 10 11 12 13 14
000
FTUS41 KLWX 181700
TAFMRB
TAF
KMRB 181729Z 1818/1918 15007KT P6SM BKN250
     FM190300 VRB03KT P6SM BKN130
     FM191300 36007KT P6SM SCT250=

USA.gov is the U.S. government's official web portal to all federal, state and local government web resources and services.